createdAt,value
2023-01-19T00:00:06.153Z,63.13
2023-01-19T00:02:54.953Z,69.97
2023-01-19T00:05:22.116Z,64.10
2023-01-19T00:07:49.261Z,68.07
2023-01-19T00:10:16.384Z,71.43
2023-01-19T00:12:43.481Z,72.78
2023-01-19T00:15:10.821Z,64.05
2023-01-19T00:17:40.938Z,70.82
2023-01-19T00:20:09.478Z,69.03
2023-01-19T00:22:36.591Z,63.95
2023-01-19T00:25:03.774Z,72.00
2023-01-19T00:27:34.894Z,65.90
2023-01-19T00:30:02.244Z,69.90
2023-01-19T00:32:29.352Z,63.35
2023-01-19T00:34:56.140Z,71.55
2023-01-19T00:37:23.316Z,75.32
2023-01-19T00:39:50.167Z,74.78
2023-01-19T00:42:35.587Z,74.53
2023-01-19T00:45:02.344Z,73.05
2023-01-19T00:47:29.478Z,77.32
2023-01-19T00:49:56.479Z,72.18
2023-01-19T00:52:23.496Z,78.82
2023-01-19T00:54:50.315Z,74.80
2023-01-19T00:57:19.177Z,79.22
2023-01-19T00:59:45.934Z,91.95
2023-01-19T01:02:13.240Z,81.65
2023-01-19T01:04:40.137Z,85.45
2023-01-19T01:07:07.253Z,82.20
2023-01-19T01:09:34.004Z,84.85
2023-01-19T01:12:01.140Z,83.93
2023-01-19T01:14:27.953Z,87.30
2023-01-19T01:16:55.165Z,88.95
2023-01-19T01:19:21.956Z,93.50
2023-01-19T01:21:49.119Z,89.60
2023-01-19T01:24:16.349Z,92.53
2023-01-19T01:26:43.453Z,89.07
2023-01-19T01:29:10.253Z,103.03
2023-01-19T01:31:37.364Z,94.60
2023-01-19T01:34:04.451Z,98.97
2023-01-19T01:36:33.466Z,100.68
2023-01-19T01:39:00.547Z,97.18
2023-01-19T01:41:27.715Z,95.75
2023-01-19T01:43:58.662Z,99.13
2023-01-19T01:46:26.521Z,92.57
2023-01-19T01:49:13.819Z,94.03
2023-01-19T01:51:42.105Z,93.25
2023-01-19T01:54:19.009Z,90.30
2023-01-19T01:56:51.514Z,93.38
2023-01-19T01:59:29.349Z,95.18
2023-01-19T02:02:16.064Z,91.60
2023-01-19T02:04:54.279Z,95.70
2023-01-19T02:07:48.842Z,103.70
2023-01-19T02:10:34.160Z,100.55
2023-01-19T02:13:22.425Z,108.15
2023-01-19T02:15:51.055Z,99.72
2023-01-19T02:18:18.840Z,97.57
2023-01-19T02:20:53.870Z,100.55
2023-01-19T02:25:54.047Z,95.13
2023-01-19T02:28:21.195Z,99.68
2023-01-19T02:30:47.948Z,107.07
2023-01-19T02:33:15.057Z,102.68
2023-01-19T02:35:41.890Z,101.15
2023-01-19T02:38:08.989Z,107.07
2023-01-19T02:40:35.798Z,104.85
2023-01-19T02:43:03.410Z,112.68
2023-01-19T02:45:30.337Z,100.93
2023-01-19T02:47:57.397Z,105.22
2023-01-19T02:50:39.426Z,99.07
2023-01-19T02:53:14.370Z,111.32
2023-01-19T02:55:41.156Z,98.10
2023-01-19T02:58:12.046Z,103.32
2023-01-19T03:00:52.418Z,96.57
2023-01-19T03:03:27.774Z,102.00
2023-01-19T03:06:14.845Z,102.40
2023-01-19T03:08:48.000Z,103.85
2023-01-19T03:11:15.024Z,106.30
2023-01-19T03:13:44.025Z,102.72
2023-01-19T03:16:29.738Z,101.03
2023-01-19T03:19:00.062Z,94.85
2023-01-19T03:21:27.618Z,96.05
2023-01-19T03:23:55.997Z,96.82
2023-01-19T03:26:26.250Z,99.28
2023-01-19T03:28:53.360Z,90.90
2023-01-19T03:31:22.969Z,95.50
2023-01-19T03:33:51.958Z,97.57
2023-01-19T03:36:22.918Z,93.55
2023-01-19T03:38:50.206Z,89.85
2023-01-19T03:41:17.867Z,94.47
2023-01-19T03:43:44.949Z,96.60
2023-01-19T03:46:11.820Z,94.13
2023-01-19T03:48:39.001Z,94.20
2023-01-19T03:51:06.775Z,97.85
2023-01-19T03:53:33.893Z,86.82
2023-01-19T03:56:00.725Z,85.45
2023-01-19T03:58:28.354Z,88.55
2023-01-19T04:00:55.228Z,83.18
2023-01-19T04:03:22.309Z,89.10
2023-01-19T04:05:49.331Z,87.60
2023-01-19T04:08:16.449Z,76.05
2023-01-19T04:10:43.220Z,84.10
2023-01-19T04:13:10.568Z,80.20
2023-01-19T04:15:37.387Z,84.70
2023-01-19T04:18:05.407Z,85.00
2023-01-19T04:20:32.152Z,85.65
2023-01-19T04:23:00.059Z,82.20
2023-01-19T04:25:27.908Z,83.47
2023-01-19T04:27:55.273Z,85.68
2023-01-19T04:30:22.684Z,83.35
2023-01-19T04:32:49.811Z,83.38
2023-01-19T04:35:17.054Z,82.45
2023-01-19T04:37:45.056Z,79.35
2023-01-19T04:40:12.205Z,84.63
2023-01-19T04:42:39.344Z,81.47
2023-01-19T04:45:06.543Z,84.43
2023-01-19T04:47:33.656Z,82.72
2023-01-19T04:50:00.376Z,82.15
2023-01-19T04:52:35.090Z,93.38
2023-01-19T04:55:02.975Z,84.57
2023-01-19T04:57:30.485Z,77.35
2023-01-19T04:59:57.848Z,78.47
2023-01-19T05:02:25.164Z,83.00
2023-01-19T05:04:52.026Z,76.80
2023-01-19T05:07:19.114Z,76.03
2023-01-19T05:09:45.838Z,85.72
2023-01-19T05:12:12.887Z,73.88
2023-01-19T05:14:39.635Z,78.90
2023-01-19T05:17:06.727Z,84.25
2023-01-19T05:19:33.476Z,75.00
2023-01-19T05:22:00.527Z,74.18
2023-01-19T05:24:27.251Z,78.38
2023-01-19T05:26:54.344Z,72.60
2023-01-19T05:29:21.183Z,84.30
2023-01-19T05:31:48.253Z,76.75
2023-01-19T05:34:15.305Z,76.18
2023-01-19T05:36:42.433Z,81.97
2023-01-19T05:39:09.231Z,78.47
2023-01-19T05:41:36.268Z,78.82
2023-01-19T05:44:03.095Z,85.28
2023-01-19T05:46:30.170Z,77.13
2023-01-19T05:48:57.018Z,78.53
2023-01-19T05:51:24.131Z,86.80
2023-01-19T05:53:50.864Z,83.28
2023-01-19T05:56:17.936Z,77.45
2023-01-19T05:58:44.658Z,83.70
2023-01-19T06:01:11.772Z,93.13
2023-01-19T06:03:39.600Z,86.05
2023-01-19T06:06:06.992Z,91.25
2023-01-19T06:08:33.808Z,82.05
2023-01-19T06:11:00.899Z,81.25
2023-01-19T06:13:27.698Z,82.13
2023-01-19T06:15:58.927Z,81.57
2023-01-19T06:18:25.867Z,70.18
2023-01-19T06:20:58.571Z,78.05
2023-01-19T06:23:26.430Z,75.10
2023-01-19T06:25:53.480Z,68.15
2023-01-19T06:28:20.259Z,78.72
2023-01-19T06:30:50.924Z,69.65
2023-01-19T06:33:17.999Z,70.68
2023-01-19T06:35:48.314Z,69.28
2023-01-19T06:38:15.142Z,72.75
2023-01-19T06:40:42.224Z,74.13
2023-01-19T06:43:09.158Z,67.93
2023-01-19T06:45:36.559Z,71.30
2023-01-19T06:48:04.237Z,68.25
2023-01-19T06:50:31.375Z,74.80
2023-01-19T06:52:58.689Z,70.90
2023-01-19T06:55:27.689Z,75.78
2023-01-19T06:57:58.916Z,71.45
2023-01-19T07:00:26.345Z,71.68
2023-01-19T07:02:53.161Z,69.60
2023-01-19T07:05:22.106Z,63.97
2023-01-19T07:07:53.170Z,67.50
2023-01-19T07:10:20.213Z,68.65
2023-01-19T07:12:47.498Z,64.75
2023-01-19T07:15:15.688Z,63.85
2023-01-19T07:17:42.675Z,63.92
2023-01-19T07:20:13.012Z,62.53
2023-01-19T07:22:41.317Z,54.58
2023-01-19T07:25:08.836Z,59.55
2023-01-19T07:27:35.643Z,62.58
2023-01-19T07:30:02.783Z,54.17
2023-01-19T07:32:29.546Z,56.08
2023-01-19T07:34:56.840Z,53.53
2023-01-19T07:37:23.708Z,56.15
2023-01-19T07:39:50.840Z,50.35
2023-01-19T07:42:17.800Z,48.00
2023-01-19T07:44:44.842Z,48.67
2023-01-19T07:47:12.748Z,47.67
2023-01-19T07:49:40.128Z,48.13
2023-01-19T07:52:07.062Z,46.20
2023-01-19T07:54:34.418Z,43.42
2023-01-19T07:57:01.170Z,45.00
2023-01-19T07:59:30.305Z,38.08
2023-01-19T08:01:59.565Z,41.55
2023-01-19T08:04:27.378Z,40.22
2023-01-19T08:06:54.432Z,39.88
2023-01-19T08:09:21.660Z,37.15
2023-01-19T08:11:48.413Z,37.42
2023-01-19T08:14:15.508Z,33.60
2023-01-19T08:16:42.253Z,34.10
2023-01-19T08:19:09.426Z,33.67
2023-01-19T08:21:36.457Z,36.03
2023-01-19T08:24:03.613Z,33.53
2023-01-19T08:26:32.345Z,32.40
2023-01-19T08:29:01.682Z,31.20
2023-01-19T08:31:28.661Z,30.95
2023-01-19T08:33:55.911Z,29.63
2023-01-19T08:36:23.868Z,30.92
2023-01-19T08:38:51.084Z,30.48
2023-01-19T08:41:17.855Z,27.27
2023-01-19T08:43:45.530Z,26.52
2023-01-19T08:46:12.507Z,25.88
2023-01-19T08:48:40.072Z,29.58
2023-01-19T08:51:06.937Z,26.13
2023-01-19T08:53:34.718Z,25.50
2023-01-19T08:56:02.320Z,25.83
2023-01-19T08:58:29.432Z,27.52
2023-01-19T09:00:56.310Z,26.40
2023-01-19T09:03:23.462Z,24.77
2023-01-19T09:05:50.432Z,25.85
2023-01-19T09:08:17.544Z,24.52
2023-01-19T09:10:46.302Z,25.08
2023-01-19T09:13:13.508Z,25.83
2023-01-19T09:15:40.459Z,22.00
2023-01-19T09:18:13.617Z,23.45
2023-01-19T09:20:44.461Z,20.63
2023-01-19T09:23:12.504Z,25.45
2023-01-19T09:25:39.826Z,20.92
2023-01-19T09:28:07.851Z,22.70
2023-01-19T09:30:36.758Z,20.35
2023-01-19T09:33:06.348Z,21.50
2023-01-19T09:35:36.988Z,20.98
2023-01-19T09:38:04.285Z,21.77
2023-01-19T09:40:31.177Z,22.08
2023-01-19T09:43:05.024Z,21.98
2023-01-19T09:45:36.186Z,22.83
2023-01-19T09:48:16.031Z,21.00
2023-01-19T09:50:47.455Z,22.00
2023-01-19T09:53:17.910Z,21.42
2023-01-19T09:55:44.794Z,18.55
2023-01-19T09:58:16.469Z,17.88
2023-01-19T10:00:44.643Z,18.00
2023-01-19T10:03:15.677Z,17.48
2023-01-19T10:05:49.520Z,18.63
2023-01-19T10:08:18.623Z,18.60
2023-01-19T10:10:53.259Z,18.75
2023-01-19T10:13:39.047Z,17.50
2023-01-19T10:16:33.965Z,17.73
2023-01-19T10:19:03.194Z,15.37
2023-01-19T10:21:33.750Z,17.90
2023-01-19T10:24:20.551Z,15.63
2023-01-19T10:26:52.548Z,16.08
2023-01-19T10:29:42.257Z,16.52
2023-01-19T10:32:17.073Z,15.63
2023-01-19T10:34:44.256Z,20.42
2023-01-19T10:37:31.880Z,18.17
2023-01-19T10:40:19.925Z,15.57
2023-01-19T10:42:46.901Z,16.05
2023-01-19T10:45:24.528Z,19.38
2023-01-19T10:47:52.802Z,14.55
2023-01-19T10:50:30.797Z,15.77
2023-01-19T10:52:59.617Z,16.08
2023-01-19T10:55:34.254Z,16.60
2023-01-19T10:58:01.460Z,17.45
2023-01-19T11:00:30.030Z,15.95
2023-01-19T11:02:56.916Z,18.20
2023-01-19T11:05:28.702Z,18.42
2023-01-19T11:07:56.303Z,18.00
2023-01-19T11:10:25.005Z,19.98
2023-01-19T11:13:12.545Z,17.05
2023-01-19T11:15:49.159Z,18.30
2023-01-19T11:18:35.994Z,16.73
2023-01-19T11:21:14.009Z,17.95
2023-01-19T11:23:51.265Z,15.82
2023-01-19T11:26:25.481Z,16.98
2023-01-19T11:28:54.638Z,15.18
2023-01-19T11:31:33.199Z,15.68
2023-01-19T11:34:05.103Z,16.95
2023-01-19T11:36:34.410Z,17.88
2023-01-19T11:39:15.931Z,18.35
2023-01-19T11:41:43.548Z,17.23
2023-01-19T11:44:29.205Z,15.85
2023-01-19T11:47:01.179Z,17.30
2023-01-19T11:49:46.680Z,18.75
2023-01-19T11:52:43.923Z,19.52
2023-01-19T11:55:17.628Z,18.88
2023-01-19T11:57:49.260Z,19.17
2023-01-19T12:00:36.490Z,19.17
2023-01-19T12:03:14.480Z,20.35
2023-01-19T12:05:42.432Z,18.35
2023-01-19T12:08:40.847Z,16.88
2023-01-19T12:11:08.785Z,16.17
2023-01-19T12:13:35.929Z,19.45
2023-01-19T12:16:12.209Z,18.90
2023-01-19T12:18:45.097Z,19.75
2023-01-19T12:21:12.219Z,18.48
2023-01-19T12:23:54.670Z,19.92
2023-01-19T12:26:36.865Z,18.00
2023-01-19T12:29:24.269Z,15.95
2023-01-19T12:32:21.951Z,17.25
2023-01-19T12:34:49.901Z,16.85
2023-01-19T12:37:36.274Z,18.33
2023-01-19T12:40:22.045Z,18.33
2023-01-19T12:43:01.829Z,15.85
2023-01-19T12:45:33.059Z,14.75
2023-01-19T12:47:59.887Z,16.73
2023-01-19T12:50:29.297Z,15.50
2023-01-19T12:52:58.462Z,18.70
2023-01-19T12:55:25.659Z,17.50
2023-01-19T12:58:07.743Z,16.10
2023-01-19T13:00:38.925Z,18.08
2023-01-19T13:03:17.966Z,19.52
2023-01-19T13:05:45.008Z,18.15
2023-01-19T13:08:12.631Z,20.23
2023-01-19T13:11:09.688Z,17.02
2023-01-19T13:13:37.172Z,16.02
2023-01-19T13:16:19.805Z,18.23
2023-01-19T13:18:53.431Z,17.65
2023-01-19T13:21:34.155Z,19.48
2023-01-19T13:24:05.216Z,19.60
2023-01-19T13:26:33.884Z,18.52
2023-01-19T13:29:15.823Z,18.55
2023-01-19T13:31:44.643Z,19.65
2023-01-19T13:34:16.958Z,17.33
2023-01-19T13:36:45.574Z,17.02
2023-01-19T13:39:17.682Z,18.25
2023-01-19T13:41:45.595Z,17.55
2023-01-19T13:44:19.294Z,16.92
2023-01-19T13:46:47.093Z,14.57
2023-01-19T13:49:19.996Z,17.08
2023-01-19T13:52:03.936Z,18.67
2023-01-19T13:54:30.747Z,19.45
2023-01-19T13:56:57.809Z,19.92
2023-01-19T13:59:24.550Z,16.70
2023-01-19T14:01:54.252Z,16.48
2023-01-19T14:04:32.194Z,16.42
2023-01-19T14:07:04.423Z,18.35
2023-01-19T14:09:31.308Z,17.80
2023-01-19T14:12:11.893Z,14.52
2023-01-19T14:14:38.718Z,16.88
2023-01-19T14:17:17.880Z,15.05
2023-01-19T14:19:48.104Z,16.17
2023-01-19T14:22:15.316Z,15.52
2023-01-19T14:24:42.123Z,15.30
2023-01-19T14:27:20.507Z,16.77
2023-01-19T14:29:50.002Z,18.58
2023-01-19T14:32:18.178Z,15.68
2023-01-19T14:34:46.883Z,15.93
2023-01-19T14:37:21.194Z,15.75
2023-01-19T14:40:01.301Z,15.93
2023-01-19T14:42:47.867Z,15.93
2023-01-19T14:45:17.548Z,16.35
2023-01-19T14:47:45.012Z,16.02
2023-01-19T14:50:23.976Z,17.60
2023-01-19T14:53:02.345Z,17.10
2023-01-19T14:55:33.908Z,18.55
2023-01-19T14:58:01.355Z,16.92
2023-01-19T15:00:28.198Z,17.08
2023-01-19T15:02:55.357Z,19.95
2023-01-19T15:05:22.225Z,19.65
2023-01-19T15:07:49.449Z,19.50
2023-01-19T15:10:20.637Z,18.67
2023-01-19T15:12:48.753Z,17.83
2023-01-19T15:15:17.385Z,19.23
2023-01-19T15:17:44.562Z,16.25
2023-01-19T15:20:16.294Z,17.15
2023-01-19T15:22:44.007Z,18.38
2023-01-19T15:25:19.333Z,16.80
2023-01-19T15:27:46.703Z,17.60
2023-01-19T15:30:21.228Z,16.88
2023-01-19T15:32:48.480Z,19.02
2023-01-19T15:35:22.600Z,18.02
2023-01-19T15:37:50.100Z,19.50
2023-01-19T15:40:17.689Z,18.88
2023-01-19T15:42:44.992Z,19.02
2023-01-19T15:45:38.584Z,21.30
2023-01-19T15:48:07.466Z,24.60
2023-01-19T15:50:36.157Z,26.48
2023-01-19T15:53:03.407Z,26.60
2023-01-19T15:55:30.239Z,29.58
2023-01-19T15:58:03.483Z,30.13
2023-01-19T16:00:31.557Z,33.47
2023-01-19T16:02:59.004Z,36.40
2023-01-19T16:05:37.446Z,32.95
2023-01-19T16:08:10.234Z,38.13
2023-01-19T16:10:37.040Z,36.58
2023-01-19T16:13:04.232Z,33.95
2023-01-19T16:15:31.040Z,38.67
2023-01-19T16:17:58.494Z,37.72
2023-01-19T16:20:25.375Z,36.17
2023-01-19T16:22:54.866Z,35.08
2023-01-19T16:25:23.513Z,34.40
2023-01-19T16:27:50.717Z,32.92
2023-01-19T16:30:19.389Z,38.35
2023-01-19T16:32:46.754Z,39.33
2023-01-19T16:35:15.556Z,40.70
2023-01-19T16:37:42.677Z,36.65
2023-01-19T16:40:10.289Z,45.45
2023-01-19T16:42:37.593Z,34.70
2023-01-19T16:45:04.655Z,38.88
2023-01-19T16:47:31.793Z,40.95
2023-01-19T16:49:58.561Z,42.53
2023-01-19T16:52:25.683Z,44.17
2023-01-19T16:54:54.739Z,43.22
2023-01-19T16:57:21.840Z,37.25
2023-01-19T16:59:50.583Z,39.88
2023-01-19T17:02:18.065Z,39.03
2023-01-19T17:04:44.905Z,39.83
2023-01-19T17:07:11.990Z,36.58
2023-01-19T17:09:39.017Z,38.60
2023-01-19T17:12:09.198Z,41.63
2023-01-19T17:14:37.402Z,40.08
2023-01-19T17:17:05.117Z,42.97
2023-01-19T17:19:31.982Z,40.30
2023-01-19T17:21:59.118Z,41.95
2023-01-19T17:24:25.960Z,37.90
2023-01-19T17:26:53.083Z,43.65
2023-01-19T17:29:19.863Z,40.70
2023-01-19T17:31:47.978Z,40.90
2023-01-19T17:34:14.815Z,39.08
2023-01-19T17:36:41.910Z,39.05
2023-01-19T17:39:11.311Z,40.85
2023-01-19T17:41:38.577Z,43.65
2023-01-19T17:44:05.761Z,43.10
2023-01-19T17:46:35.625Z,39.83
2023-01-19T17:49:03.609Z,42.50
2023-01-19T17:51:30.820Z,45.67
2023-01-19T17:53:57.725Z,45.67
2023-01-19T17:56:29.484Z,42.90
2023-01-19T17:58:57.060Z,40.88
2023-01-19T18:01:25.943Z,41.50
2023-01-19T18:03:53.136Z,45.53
2023-01-19T18:06:20.375Z,42.85
2023-01-19T18:08:47.498Z,43.55
2023-01-19T18:11:15.189Z,41.65
2023-01-19T18:13:42.936Z,44.17
2023-01-19T18:16:14.932Z,44.70
2023-01-19T18:18:42.086Z,39.53
2023-01-19T18:21:10.724Z,43.42
2023-01-19T18:23:37.510Z,42.88
2023-01-19T18:26:13.248Z,42.85
2023-01-19T18:31:12.615Z,41.78
2023-01-19T18:33:39.985Z,41.28
2023-01-19T18:36:07.831Z,42.90
2023-01-19T18:38:34.673Z,38.40
2023-01-19T18:41:05.367Z,37.63
2023-01-19T18:43:32.151Z,41.30
2023-01-19T18:45:59.334Z,43.72
2023-01-19T18:48:26.272Z,40.38
2023-01-19T18:50:53.527Z,44.13
2023-01-19T18:53:20.527Z,40.90
2023-01-19T18:55:56.032Z,41.63
2023-01-19T18:58:23.019Z,40.97
2023-01-19T19:00:50.457Z,39.38
2023-01-19T19:03:17.376Z,45.80
2023-01-19T19:05:44.516Z,44.70
2023-01-19T19:08:11.416Z,43.75
2023-01-19T19:10:40.463Z,46.28
2023-01-19T19:13:07.807Z,45.33
2023-01-19T19:15:34.928Z,49.38
2023-01-19T19:18:01.787Z,49.42
2023-01-19T19:20:28.960Z,49.97
2023-01-19T19:22:56.001Z,47.47
2023-01-19T19:25:23.287Z,46.58
2023-01-19T19:27:51.434Z,52.28
2023-01-19T19:30:19.784Z,54.10
2023-01-19T19:32:59.983Z,50.72
2023-01-19T19:35:27.132Z,59.35
2023-01-19T19:37:57.496Z,52.97
2023-01-19T19:40:25.715Z,56.22
2023-01-19T19:42:52.545Z,54.10
2023-01-19T19:45:19.611Z,52.03
2023-01-19T19:47:46.443Z,64.15
2023-01-19T19:50:14.233Z,54.92
2023-01-19T19:52:41.547Z,63.55
2023-01-19T19:55:09.634Z,63.58
2023-01-19T19:57:36.569Z,59.40
2023-01-19T20:00:05.292Z,63.53
2023-01-19T20:02:32.480Z,64.68
2023-01-19T20:04:59.766Z,63.53
2023-01-19T20:07:26.584Z,62.22
2023-01-19T20:09:55.194Z,62.03
2023-01-19T20:12:22.228Z,56.60
2023-01-19T20:14:49.482Z,59.45
2023-01-19T20:17:16.317Z,59.08
2023-01-19T20:19:45.642Z,66.30
2023-01-19T20:22:12.484Z,57.40
2023-01-19T20:24:39.640Z,57.58
2023-01-19T20:27:06.419Z,57.08
2023-01-19T20:29:33.586Z,59.90
2023-01-19T20:32:00.694Z,58.97
2023-01-19T20:34:32.109Z,54.72
2023-01-19T20:37:00.748Z,59.95
2023-01-19T20:39:30.029Z,58.03
2023-01-19T20:41:56.951Z,53.55
2023-01-19T20:44:25.099Z,59.55
2023-01-19T20:46:52.440Z,61.38
2023-01-19T20:49:19.681Z,54.72
2023-01-19T20:51:46.996Z,55.45
2023-01-19T20:54:16.359Z,56.53
2023-01-19T20:56:43.189Z,56.88
2023-01-19T20:59:10.732Z,56.95
2023-01-19T21:01:37.750Z,57.70
2023-01-19T21:04:05.128Z,61.22
2023-01-19T21:06:32.002Z,55.55
2023-01-19T21:08:59.124Z,58.80
2023-01-19T21:11:26.149Z,57.47
2023-01-19T21:13:56.156Z,56.80
2023-01-19T21:16:24.380Z,57.00
2023-01-19T21:18:51.641Z,58.90
2023-01-19T21:21:29.762Z,72.72
2023-01-19T21:23:57.615Z,72.63
2023-01-19T21:26:24.407Z,76.22
2023-01-19T21:28:51.590Z,77.93
2023-01-19T21:31:18.573Z,76.57
2023-01-19T21:33:45.902Z,93.40
2023-01-19T21:36:12.878Z,96.90
2023-01-19T21:38:39.974Z,101.60
2023-01-19T21:41:08.101Z,93.57
2023-01-19T21:43:36.363Z,95.43
2023-01-19T21:46:11.145Z,103.18
2023-01-19T21:48:38.372Z,94.90
2023-01-19T21:51:05.281Z,94.28
2023-01-19T21:53:32.442Z,91.82
2023-01-19T21:56:00.355Z,91.38
2023-01-19T21:58:27.647Z,95.25
2023-01-19T22:01:06.028Z,91.50
2023-01-19T22:03:33.378Z,89.53
2023-01-19T22:06:10.762Z,99.65
2023-01-19T22:08:38.153Z,92.03
2023-01-19T22:11:09.452Z,96.28
2023-01-19T22:13:38.615Z,94.70
2023-01-19T22:16:10.436Z,88.40
2023-01-19T22:18:38.477Z,96.22
2023-01-19T22:21:09.635Z,93.70
2023-01-19T22:23:36.804Z,93.07
2023-01-19T22:26:04.369Z,86.70
2023-01-19T22:28:31.684Z,85.10
2023-01-19T22:31:09.220Z,89.93
2023-01-19T22:33:36.525Z,79.07
2023-01-19T22:36:10.219Z,83.40
2023-01-19T22:38:39.797Z,83.80
2023-01-19T22:41:19.944Z,83.35
2023-01-19T22:43:47.982Z,84.97
2023-01-19T22:46:21.814Z,80.22
2023-01-19T22:48:49.126Z,83.00
2023-01-19T22:51:16.384Z,76.50
2023-01-19T22:53:43.624Z,80.93
2023-01-19T22:56:17.842Z,79.47
2023-01-19T22:58:45.152Z,78.80
2023-01-19T23:01:17.023Z,77.13
2023-01-19T23:03:44.318Z,77.82
2023-01-19T23:06:16.068Z,79.85
2023-01-19T23:08:43.416Z,74.93
2023-01-19T23:11:12.257Z,79.43
2023-01-19T23:13:39.356Z,78.22
2023-01-19T23:16:06.634Z,74.13
2023-01-19T23:18:33.715Z,77.03
2023-01-19T23:21:11.835Z,82.20
2023-01-19T23:23:38.981Z,71.68
2023-01-19T23:26:07.942Z,69.53
2023-01-19T23:28:36.656Z,72.47
2023-01-19T23:31:23.693Z,72.25
2023-01-19T23:34:07.392Z,72.93
2023-01-19T23:36:35.749Z,69.45
2023-01-19T23:39:04.944Z,72.50
2023-01-19T23:41:33.194Z,70.15
2023-01-19T23:44:00.608Z,74.25
2023-01-19T23:46:27.785Z,72.80
2023-01-19T23:48:54.920Z,63.72
2023-01-19T23:51:26.185Z,67.28
2023-01-19T23:53:53.494Z,71.75
2023-01-19T23:56:22.069Z,73.63
2023-01-19T23:58:56.063Z,73.32
